Time;durP1;ratioP1;P1;durP2;ratioP2;P2;SDS_P1;SDS_P2;PMS_P1;PMS_P2;Temp;Humidity;BMP_temperature;BMP_pressure;BME280_temperature;BME280_humidity;BME280_pressure;Samples;Min_cycle;Max_cycle;Signal;HPM_P1;HPM_P2
2023/06/28 00:01:31;;;;;;;1.63;1.23;;;;;;;-147.53;100.00;57128.34;10486187;28;20611;-74
2023/06/28 00:06:33;;;;;;;2.58;1.30;;;;;;;-147.53;100.00;57128.34;10485134;28;20421;-75
2023/06/28 00:11:35;;;;;;;1.23;1.02;;;;;;;-147.53;100.00;57128.34;10485410;28;20040;-75
2023/06/28 00:16:36;;;;;;;2.60;1.45;;;;;;;-147.53;100.00;57128.34;10467725;28;20136;-74
2023/06/28 00:21:38;;;;;;;2.75;1.33;;;;;;;-147.53;100.00;57128.34;10488344;28;20128;-75
2023/06/28 00:26:39;;;;;;;2.33;1.20;;;;;;;-147.53;100.00;57128.34;10481692;28;20040;-75
2023/06/28 00:31:41;;;;;;;3.70;1.45;;;;;;;-147.53;100.00;57128.34;10465404;28;20428;-75
2023/06/28 00:36:42;;;;;;;1.75;0.80;;;;;;;-147.53;100.00;57128.34;10466632;28;20044;-75
2023/06/28 00:41:44;;;;;;;4.70;1.42;;;;;;;-147.53;100.00;57128.34;10485222;28;20072;-75
2023/06/28 00:46:48;;;;;;;8.73;1.20;;;;;;;-147.53;100.00;57128.34;10484470;28;20053;-75
2023/06/28 00:51:50;;;;;;;2.28;1.30;;;;;;;-147.53;100.00;57128.34;10470608;28;20505;-75
2023/06/28 00:56:52;;;;;;;2.20;1.23;;;;;;;-147.53;100.00;57128.34;10466578;28;20084;-75
2023/06/28 01:01:55;;;;;;;3.50;1.67;;;;;;;-147.53;100.00;57128.34;10450865;28;20094;-74
2023/06/28 01:06:59;;;;;;;3.95;1.48;;;;;;;-147.53;100.00;57128.34;10484473;28;20415;-75
2023/06/28 01:12:02;;;;;;;3.50;1.25;;;;;;;-147.53;100.00;57128.34;10459667;28;20480;-75
2023/06/28 01:17:05;;;;;;;5.50;2.03;;;;;;;-147.53;100.00;57128.34;10484837;28;20040;-75
2023/06/28 01:22:09;;;;;;;2.60;1.40;;;;;;;-147.53;100.00;57128.34;10488554;28;20040;-75
2023/06/28 01:27:13;;;;;;;2.67;0.88;;;;;;;-147.53;100.00;57128.34;10468222;28;20056;-75
2023/06/28 01:32:15;;;;;;;2.20;1.70;;;;;;;-147.53;100.00;57128.34;10484819;28;20512;-75
2023/06/28 01:37:18;;;;;;;1.92;1.05;;;;;;;-147.53;100.00;57128.34;10486087;28;20044;-75
2023/06/28 01:42:19;;;;;;;1.83;1.08;;;;;;;-147.53;100.00;57128.34;10446813;28;20117;-75
2023/06/28 01:47:21;;;;;;;3.15;1.30;;;;;;;-147.53;100.00;57128.34;10468446;28;20051;-75
2023/06/28 01:52:23;;;;;;;9.10;1.65;;;;;;;-147.53;100.00;57128.34;10489507;28;20045;-75
2023/06/28 01:57:24;;;;;;;1.55;1.08;;;;;;;-147.53;100.00;57128.34;10468477;28;20068;-75
2023/06/28 02:02:26;;;;;;;5.10;1.38;;;;;;;-147.53;100.00;57128.34;10451673;28;20468;-75
2023/06/28 02:07:28;;;;;;;3.17;1.17;;;;;;;-147.53;100.00;57128.34;10468920;28;20064;-75
2023/06/28 02:12:29;;;;;;;2.80;1.08;;;;;;;-147.53;100.00;57128.34;10468368;28;20724;-74
2023/06/28 02:17:31;;;;;;;4.93;1.25;;;;;;;-147.53;100.00;57128.34;10468251;28;20128;-75
2023/06/28 02:22:33;;;;;;;3.60;1.73;;;;;;;-147.53;100.00;57128.34;10488738;28;20048;-74
2023/06/28 02:27:35;;;;;;;3.05;1.15;;;;;;;-147.53;100.00;57128.34;10486768;28;20075;-75
2023/06/28 02:32:36;;;;;;;1.42;0.98;;;;;;;-147.53;100.00;57128.34;10492857;28;20048;-74
2023/06/28 02:37:38;;;;;;;0.82;0.77;;;;;;;-147.53;100.00;57128.34;10487090;28;20044;-75
2023/06/28 02:42:40;;;;;;;1.83;1.08;;;;;;;-147.53;100.00;57128.34;10470249;28;20127;-74
2023/06/28 02:47:42;;;;;;;1.85;0.70;;;;;;;-147.53;100.00;57128.34;10494094;28;20710;-74
2023/06/28 02:52:44;;;;;;;3.83;1.15;;;;;;;-147.53;100.00;57128.34;10479559;28;20538;-75
2023/06/28 02:57:46;;;;;;;12.07;2.53;;;;;;;-147.53;100.00;57128.34;10475184;28;20048;-75
2023/06/28 03:02:49;;;;;;;2.17;1.10;;;;;;;-147.53;100.00;57128.34;10475997;28;20651;-74
2023/06/28 03:07:53;;;;;;;1.98;1.38;;;;;;;-147.53;100.00;57128.34;10476753;28;20517;-75
2023/06/28 03:12:55;;;;;;;5.47;1.25;;;;;;;-147.53;100.00;57128.34;10459560;28;20525;-74
2023/06/28 03:17:57;;;;;;;9.38;1.38;;;;;;;-147.53;100.00;57128.34;10473843;28;20048;-75
2023/06/28 03:22:59;;;;;;;1.83;0.95;;;;;;;-147.53;100.00;57128.34;10478322;28;20128;-74
2023/06/28 03:28:02;;;;;;;9.15;1.35;;;;;;;-147.53;100.00;57128.34;10473617;28;20516;-74
2023/06/28 03:33:03;;;;;;;2.58;1.60;;;;;;;-147.53;100.00;57128.34;10476301;28;20119;-75
2023/06/28 03:38:06;;;;;;;2.97;1.20;;;;;;;-147.53;100.00;57128.34;10472679;28;20044;-74
2023/06/28 03:43:08;;;;;;;2.15;1.25;;;;;;;-147.53;100.00;57128.34;10494669;28;20713;-75
2023/06/28 03:48:11;;;;;;;3.45;1.08;;;;;;;-147.53;100.00;57128.34;10470785;28;20502;-75
2023/06/28 03:53:13;;;;;;;1.00;0.90;;;;;;;-147.53;100.00;57128.34;10496197;28;20040;-74
2023/06/28 03:58:14;;;;;;;1.85;0.95;;;;;;;-147.53;100.00;57128.34;10475407;28;20071;-75
2023/06/28 04:03:16;;;;;;;1.73;1.08;;;;;;;-147.53;100.00;57128.34;10493445;28;20052;-75
2023/06/28 04:08:17;;;;;;;2.45;1.23;;;;;;;-147.53;100.00;57128.34;10492377;28;20430;-75
2023/06/28 04:13:19;;;;;;;3.35;1.20;;;;;;;-147.53;100.00;57128.34;10494541;28;20504;-75
2023/06/28 04:18:21;;;;;;;3.45;1.67;;;;;;;-147.53;100.00;57128.34;10495788;28;20135;-75
2023/06/28 04:23:22;;;;;;;5.38;1.48;;;;;;;-147.53;100.00;57128.34;10502240;28;20050;-75
2023/06/28 04:28:25;;;;;;;3.92;1.67;;;;;;;-147.53;100.00;57128.34;10496949;28;20044;-75
2023/06/28 04:33:29;;;;;;;2.13;1.20;;;;;;;-147.53;100.00;57128.34;10459869;28;20068;-75
2023/06/28 04:38:32;;;;;;;6.30;1.33;;;;;;;-147.53;100.00;57128.34;10473565;28;20081;-75
2023/06/28 04:43:40;;;;;;;1.80;1.20;;;;;;;-147.53;100.00;57128.34;10486224;28;20066;-75
2023/06/28 04:48:43;;;;;;;4.10;1.65;;;;;;;-147.53;100.00;57128.34;10493978;28;20052;-75
2023/06/28 04:53:45;;;;;;;3.85;1.77;;;;;;;-147.53;100.00;57128.34;10480402;28;20510;-74
2023/06/28 04:58:46;;;;;;;5.22;1.42;;;;;;;-147.53;100.00;57128.34;10493608;28;20059;-75
2023/06/28 05:03:48;;;;;;;2.20;1.17;;;;;;;-147.53;100.00;57128.34;10495074;28;20083;-75
2023/06/28 05:08:50;;;;;;;2.70;1.77;;;;;;;-147.53;100.00;57128.34;10493602;28;20518;-75
2023/06/28 05:13:52;;;;;;;6.93;2.03;;;;;;;-147.53;100.00;57128.34;10476390;28;20051;-75
2023/06/28 05:18:54;;;;;;;2.17;1.25;;;;;;;-147.53;100.00;57128.34;10495602;28;20048;-75
2023/06/28 05:23:55;;;;;;;3.03;1.83;;;;;;;-147.53;100.00;57128.34;10475244;28;20041;-75
2023/06/28 05:28:57;;;;;;;5.47;1.80;;;;;;;-147.53;100.00;57128.34;10494995;28;20054;-75
2023/06/28 05:33:58;;;;;;;2.03;1.27;;;;;;;-147.53;100.00;57128.34;10494084;28;20048;-75
2023/06/28 05:39:00;;;;;;;2.08;1.25;;;;;;;-147.53;100.00;57128.34;10477007;28;20094;-74
2023/06/28 05:44:02;;;;;;;3.20;1.42;;;;;;;-147.53;100.00;57128.34;10494748;28;20436;-75
2023/06/28 05:49:08;;;;;;;3.33;1.45;;;;;;;-147.53;100.00;57128.34;10494656;28;20102;-75
2023/06/28 05:54:10;;;;;;;3.80;1.55;;;;;;;-147.53;100.00;57128.34;10480478;28;20136;-75
2023/06/28 05:59:11;;;;;;;7.97;1.88;;;;;;;-147.53;100.00;57128.34;10477177;28;20502;-75
2023/06/28 06:04:13;;;;;;;1.92;1.40;;;;;;;-147.53;100.00;57128.34;10494265;28;20044;-75
2023/06/28 06:09:15;;;;;;;3.40;1.60;;;;;;;-147.53;100.00;57128.34;10459818;28;20159;-75
2023/06/28 06:14:16;;;;;;;6.97;1.83;;;;;;;-147.53;100.00;57128.34;10494453;28;20127;-74
2023/06/28 06:19:18;;;;;;;3.17;1.45;;;;;;;-147.53;100.00;57128.34;10478773;28;20051;-74
2023/06/28 06:24:20;;;;;;;4.25;1.65;;;;;;;-147.53;100.00;57128.34;10506094;28;20211;-75
2023/06/28 06:29:22;;;;;;;2.30;1.35;;;;;;;-147.53;100.00;57128.34;10486639;28;20072;-75
2023/06/28 06:34:23;;;;;;;3.13;1.52;;;;;;;-147.53;100.00;57128.34;10503303;28;20059;-75
2023/06/28 06:39:25;;;;;;;2.15;1.30;;;;;;;-147.53;100.00;57128.34;10504387;28;20044;-76
2023/06/28 06:44:27;;;;;;;3.20;1.15;;;;;;;-147.53;100.00;57128.34;10508669;28;20036;-78
2023/06/28 06:49:29;;;;;;;4.72;1.83;;;;;;;-147.53;100.00;57128.34;10514343;28;20051;-77
2023/06/28 06:54:30;;;;;;;3.05;1.13;;;;;;;-147.53;100.00;57128.34;10496371;28;20132;-76
2023/06/28 06:59:32;;;;;;;4.78;1.70;;;;;;;-147.53;100.00;57128.34;10505430;28;20044;-76
2023/06/28 07:04:34;;;;;;;2.22;1.33;;;;;;;-147.53;100.00;57128.34;10504750;28;20134;-75
2023/06/28 07:09:35;;;;;;;6.20;1.55;;;;;;;-147.53;100.00;57128.34;10504512;28;20040;-75
2023/06/28 07:14:37;;;;;;;3.50;1.25;;;;;;;-147.53;100.00;57128.34;10480707;28;20049;-77
2023/06/28 07:19:38;;;;;;;4.72;1.00;;;;;;;-147.53;100.00;57128.34;10492579;28;20131;-77
2023/06/28 07:24:40;;;;;;;1.38;0.85;;;;;;;-147.53;100.00;57128.34;10488862;28;20044;-76
2023/06/28 07:29:41;;;;;;;3.97;1.38;;;;;;;-147.53;100.00;57128.34;10491594;28;20091;-78
2023/06/28 07:34:43;;;;;;;2.03;1.20;;;;;;;-147.53;100.00;57128.34;10483447;28;20086;-77
2023/06/28 07:39:45;;;;;;;5.40;1.50;;;;;;;-147.53;100.00;57128.34;10492766;28;20045;-78
2023/06/28 07:44:47;;;;;;;3.63;1.50;;;;;;;-147.53;100.00;57128.34;10508750;28;20040;-78
2023/06/28 07:49:49;;;;;;;2.72;1.13;;;;;;;-147.53;100.00;57128.34;10500463;28;20461;-78
2023/06/28 07:54:50;;;;;;;7.57;1.25;;;;;;;-147.53;100.00;57128.34;10507677;28;20510;-78
2023/06/28 07:59:52;;;;;;;3.28;1.55;;;;;;;-147.53;100.00;57128.34;10474023;28;20048;-78
2023/06/28 08:04:53;;;;;;;3.58;1.10;;;;;;;-147.53;100.00;57128.34;10466785;28;21204;-77
2023/06/28 08:09:55;;;;;;;3.95;1.42;;;;;;;-147.53;100.00;57128.34;10505632;28;20045;-78
2023/06/28 08:14:57;;;;;;;1.10;0.80;;;;;;;-147.53;100.00;57128.34;10467822;28;20124;-75
2023/06/28 08:19:59;;;;;;;2.30;1.00;;;;;;;-147.53;100.00;57128.34;10483459;28;20573;-77
2023/06/28 08:25:00;;;;;;;0.60;0.50;;;;;;;-147.53;100.00;57128.34;10470006;28;20719;-76
2023/06/28 08:30:02;;;;;;;1.08;0.70;;;;;;;-147.53;100.00;57128.34;10468224;28;20040;-76
2023/06/28 08:35:05;;;;;;;5.40;1.00;;;;;;;-147.53;100.00;57128.34;10477155;28;20067;-77
2023/06/28 08:40:07;;;;;;;1.85;0.90;;;;;;;-147.53;100.00;57128.34;10478156;28;20107;-77
2023/06/28 08:45:10;;;;;;;2.40;0.82;;;;;;;-147.53;100.00;57128.34;10489680;28;20043;-76
2023/06/28 08:50:14;;;;;;;4.90;1.13;;;;;;;-147.53;100.00;57128.34;10466138;28;20041;-76
2023/06/28 08:55:18;;;;;;;3.50;0.95;;;;;;;-147.53;100.00;57128.34;10493782;28;20060;-76
2023/06/28 09:00:19;;;;;;;5.93;1.35;;;;;;;-147.53;100.00;57128.34;10485257;28;20071;-76
2023/06/28 09:05:22;;;;;;;2.75;0.95;;;;;;;-147.53;100.00;57128.34;10485802;28;20409;-76
2023/06/28 09:10:23;;;;;;;1.83;0.93;;;;;;;-147.53;100.00;57128.34;10459576;28;20042;-76
2023/06/28 09:15:25;;;;;;;3.28;1.20;;;;;;;-147.53;100.00;57128.34;10461635;28;20504;-76
2023/06/28 09:20:27;;;;;;;2.63;1.08;;;;;;;20.86;65.18;101655.59;10475210;28;20571;-77
2023/06/28 09:25:31;;;;;;;2.35;1.00;;;;;;;21.05;64.65;101672.22;10462125;28;20044;-79
2023/06/28 09:30:35;;;;;;;3.17;1.13;;;;;;;20.77;63.57;101666.34;10471702;28;20119;-78
2023/06/28 09:35:37;;;;;;;0.85;0.70;;;;;;;-147.53;100.00;57128.34;10485722;28;20044;-78
2023/06/28 09:40:38;;;;;;;1.25;0.70;;;;;;;-147.53;100.00;57128.34;10465887;28;20590;-78
2023/06/28 09:45:40;;;;;;;1.50;0.52;;;;;;;-147.53;100.00;57128.34;10462324;28;20536;-79
2023/06/28 09:50:44;;;;;;;1.92;0.90;;;;;;;-147.53;100.00;57128.34;10458935;28;20506;-78
2023/06/28 09:55:49;;;;;;;2.53;1.13;;;;;;;-147.53;100.00;57128.34;10484453;28;20060;-79
2023/06/28 10:00:51;;;;;;;5.20;1.80;;;;;;;-147.53;100.00;57128.34;10501028;28;20075;-79
2023/06/28 10:05:56;;;;;;;5.78;1.60;;;;;;;21.03;62.55;101682.00;10433251;28;20119;-79
2023/06/28 10:10:58;;;;;;;4.82;2.08;;;;;;;21.18;61.57;101686.25;10426328;28;20653;-78
2023/06/28 10:16:05;;;;;;;2.72;1.02;;;;;;;20.71;60.95;101693.03;10475763;28;20585;-77
2023/06/28 10:21:07;;;;;;;1.70;0.63;;;;;;;20.57;61.47;101679.84;10492365;28;20074;-78
2023/06/28 10:26:10;;;;;;;2.97;1.00;;;;;;;20.44;62.34;101679.94;10491958;28;20102;-77
2023/06/28 10:31:12;;;;;;;2.03;0.77;;;;;;;20.79;62.70;101683.16;10481749;28;20131;-77
2023/06/28 10:36:15;;;;;;;3.45;1.10;;;;;;;20.91;62.52;101688.38;10482188;28;20732;-76
2023/06/28 10:41:17;;;;;;;2.63;1.08;;;;;;;20.86;62.36;101692.84;10457877;28;20052;-76
2023/06/28 10:46:25;;;;;;;3.72;1.50;;;;;;;20.47;62.47;101700.31;10501658;28;20060;-77
2023/06/28 10:51:31;;;;;;;1.70;1.05;;;;;;;20.38;63.05;101700.41;10465852;28;20055;-77
2023/06/28 10:56:51;;;;;;;2.83;1.48;;;;;;;20.42;63.63;101696.84;10470347;28;20072;-77
2023/06/28 11:01:54;;;;;;;4.00;1.15;;;;;;;20.44;63.72;101697.69;10495814;28;20074;-77
2023/06/28 11:07:02;;;;;;;4.75;1.80;;;;;;;-147.53;100.00;57128.34;10497977;28;20095;-78
2023/06/28 11:12:04;;;;;;;2.88;1.40;;;;;;;-147.53;100.00;57128.34;10495241;28;20047;-76
2023/06/28 11:17:12;;;;;;;4.88;1.70;;;;;;;-147.53;100.00;57128.34;10476810;28;20141;-77
2023/06/28 11:22:15;;;;;;;3.53;1.30;;;;;;;-147.53;100.00;57128.34;10502695;28;20514;-77
2023/06/28 11:27:17;;;;;;;3.75;1.58;;;;;;;-147.53;100.00;57128.34;10514559;28;20032;-76
2023/06/28 11:32:31;;;;;;;7.22;1.50;;;;;;;-147.53;100.00;57128.34;10496017;28;20140;-76
2023/06/28 11:37:35;;;;;;;2.83;1.35;;;;;;;-147.53;100.00;57128.34;10515109;28;20562;-77
2023/06/28 11:42:44;;;;;;;3.13;1.70;;;;;;;-147.53;100.00;57128.34;10513549;28;20131;-76
2023/06/28 11:47:46;;;;;;;2.08;1.30;;;;;;;-147.53;100.00;57128.34;10496630;28;20048;-77
2023/06/28 11:52:48;;;;;;;3.00;1.20;;;;;;;-147.53;100.00;57128.34;10510089;28;20437;-77
2023/06/28 11:57:49;;;;;;;3.88;1.80;;;;;;;-147.53;100.00;57128.34;10513762;28;20052;-77
2023/06/28 12:02:52;;;;;;;6.07;1.92;;;;;;;-147.53;100.00;57128.34;10514643;28;20047;-74
2023/06/28 12:07:57;;;;;;;3.92;1.73;;;;;;;-147.53;100.00;57128.34;10515609;28;20044;-76
2023/06/28 12:12:58;;;;;;;3.33;1.67;;;;;;;-147.53;100.00;57128.34;10495376;28;20558;-76
2023/06/28 12:18:00;;;;;;;3.13;1.40;;;;;;;-147.53;100.00;57128.34;10496234;28;20064;-76
2023/06/28 12:23:10;;;;;;;3.70;1.48;;;;;;;-147.53;100.00;57128.34;10495795;28;20064;-77
2023/06/28 12:28:13;;;;;;;2.83;1.50;;;;;;;-147.53;100.00;57128.34;10514146;28;20048;-76
2023/06/28 12:33:14;;;;;;;2.17;1.40;;;;;;;-147.53;100.00;57128.34;10513018;28;20151;-76
2023/06/28 12:38:18;;;;;;;7.65;1.55;;;;;;;-147.53;100.00;57128.34;10514012;28;20048;-76
2023/06/28 12:43:25;;;;;;;3.13;1.23;;;;;;;-147.53;100.00;57128.34;10495404;28;20464;-76
2023/06/28 12:48:28;;;;;;;9.43;1.80;;;;;;;-147.53;100.00;57128.34;10509777;28;20033;-77
2023/06/28 12:53:29;;;;;;;4.47;1.40;;;;;;;-147.53;100.00;57128.34;10511650;28;20090;-77
2023/06/28 12:58:31;;;;;;;3.42;1.58;;;;;;;-147.53;100.00;57128.34;10496040;28;20509;-77
2023/06/28 13:03:33;;;;;;;2.75;1.42;;;;;;;-147.53;100.00;57128.34;10507861;28;20048;-77
2023/06/28 13:08:35;;;;;;;2.50;1.10;;;;;;;-147.53;100.00;57128.34;10514209;28;20040;-77
2023/06/28 13:13:36;;;;;;;2.05;1.02;;;;;;;-147.53;100.00;57128.34;10513276;28;20044;-76
2023/06/28 13:18:38;;;;;;;3.00;1.30;;;;;;;-147.53;100.00;57128.34;10496287;28;20051;-77
2023/06/28 13:23:39;;;;;;;3.00;1.48;;;;;;;-147.53;100.00;57128.34;10514193;28;20078;-78
2023/06/28 13:28:44;;;;;;;3.72;1.38;;;;;;;-147.53;100.00;57128.34;10513127;28;20050;-77
2023/06/28 13:33:45;;;;;;;2.42;1.50;;;;;;;-147.53;100.00;57128.34;10509307;28;20418;-76
2023/06/28 13:38:48;;;;;;;5.97;1.65;;;;;;;-147.53;100.00;57128.34;10513389;28;20482;-76
2023/06/28 13:43:49;;;;;;;2.08;1.02;;;;;;;-147.53;100.00;57128.34;10512419;28;20106;-76
2023/06/28 13:48:52;;;;;;;4.10;1.63;;;;;;;-147.53;100.00;57128.34;10513750;28;20353;-76
2023/06/28 13:53:54;;;;;;;4.95;1.30;;;;;;;-147.53;100.00;57128.34;10513290;28;20083;-76
2023/06/28 13:58:56;;;;;;;3.33;1.10;;;;;;;-147.53;100.00;57128.34;10514531;28;20051;-76
2023/06/28 14:03:57;;;;;;;2.60;1.40;;;;;;;-147.53;100.00;57128.34;10501325;28;20040;-76
2023/06/28 14:08:59;;;;;;;5.20;1.45;;;;;;;-147.53;100.00;57128.34;10514866;28;20450;-76
2023/06/28 14:14:01;;;;;;;5.45;1.38;;;;;;;-147.53;100.00;57128.34;10514497;28;20154;-76
2023/06/28 14:19:02;;;;;;;2.70;1.40;;;;;;;-147.53;100.00;57128.34;10514508;28;20036;-76
2023/06/28 14:24:04;;;;;;;4.68;1.63;;;;;;;-147.53;100.00;57128.34;10495985;28;20052;-76
2023/06/28 14:29:06;;;;;;;5.45;1.63;;;;;;;-147.53;100.00;57128.34;10514655;28;20040;-76
2023/06/28 14:34:08;;;;;;;7.00;1.50;;;;;;;-147.53;100.00;57128.34;10498109;28;20036;-76
2023/06/28 14:39:10;;;;;;;5.22;2.00;;;;;;;-147.53;100.00;57128.34;10501831;28;20167;-76
2023/06/28 14:44:11;;;;;;;2.40;1.40;;;;;;;-147.53;100.00;57128.34;10522177;28;20127;-76
2023/06/28 14:49:13;;;;;;;4.50;1.70;;;;;;;-147.53;100.00;57128.34;10523895;28;20115;-76
2023/06/28 14:54:14;;;;;;;4.18;1.90;;;;;;;-147.53;100.00;57128.34;10500295;28;20136;-76
2023/06/28 14:59:16;;;;;;;4.55;2.13;;;;;;;-147.53;100.00;57128.34;10522659;28;20109;-76
2023/06/28 15:04:17;;;;;;;3.83;2.28;;;;;;;-147.53;100.00;57128.34;10503285;28;20094;-76
2023/06/28 15:09:20;;;;;;;4.90;2.22;;;;;;;-147.53;100.00;57128.34;10498829;28;20118;-77
2023/06/28 15:14:22;;;;;;;8.90;2.20;;;;;;;-147.53;100.00;57128.34;10512603;28;20072;-77
2023/06/28 15:19:24;;;;;;;4.78;2.05;;;;;;;-147.53;100.00;57128.34;10476430;28;20142;-76
2023/06/28 15:24:25;;;;;;;5.50;2.63;;;;;;;20.81;69.10;101614.84;10485276;28;20048;-77
2023/06/28 15:29:27;;;;;;;4.93;2.40;;;;;;;20.61;69.25;101607.97;10496857;28;20135;-78
2023/06/28 15:34:29;;;;;;;4.07;2.33;;;;;;;20.65;69.21;101617.69;10490490;28;20040;-77
2023/06/28 15:39:30;;;;;;;7.47;2.47;;;;;;;20.44;69.23;101612.59;10504296;28;20509;-78
2023/06/28 15:44:32;;;;;;;6.10;2.58;;;;;;;20.45;69.98;101604.59;10508663;28;20079;-77
2023/06/28 15:49:34;;;;;;;5.80;2.55;;;;;;;20.57;69.96;101610.69;10507720;28;20136;-77
2023/06/28 15:54:38;;;;;;;5.07;2.20;;;;;;;20.53;69.67;101604.50;10522524;28;20086;-77
2023/06/28 15:59:39;;;;;;;4.72;1.85;;;;;;;20.56;69.88;101611.56;10523181;28;20843;-77
2023/06/28 16:04:41;;;;;;;6.93;1.92;;;;;;;20.61;69.53;101612.38;10523054;28;20040;-77
2023/06/28 16:09:43;;;;;;;4.80;2.22;;;;;;;20.45;69.67;101607.25;10487484;28;20048;-78
2023/06/28 16:14:44;;;;;;;4.38;1.77;;;;;;;20.48;69.63;101607.22;10516645;28;20048;-77
2023/06/28 16:19:46;;;;;;;3.22;1.40;;;;;;;20.57;69.63;101603.56;10539006;28;20067;-77
2023/06/28 16:24:47;;;;;;;3.15;1.73;;;;;;;20.51;69.80;101600.97;10522274;28;20085;-77
2023/06/28 16:29:49;;;;;;;4.20;1.95;;;;;;;20.51;69.80;101600.97;10522447;28;20113;-78
2023/06/28 16:34:51;;;;;;;5.45;2.20;;;;;;;20.45;69.97;101606.38;10521949;28;20125;-77
2023/06/28 16:39:52;;;;;;;5.03;1.77;;;;;;;20.23;70.45;101611.03;10522871;28;20398;-77
2023/06/28 16:44:54;;;;;;;6.10;2.55;;;;;;;20.24;71.10;101608.34;10515397;28;20052;-77
2023/06/28 16:49:55;;;;;;;7.90;2.80;;;;;;;20.18;71.09;101608.41;10515276;28;20135;-78
2023/06/28 16:54:57;;;;;;;6.35;2.72;;;;;;;20.09;71.16;101603.19;10494689;28;20048;-77
2023/06/28 16:59:59;;;;;;;5.75;2.55;;;;;;;-147.53;100.00;57128.34;10507465;28;20044;-77
2023/06/28 17:05:00;;;;;;;5.32;2.15;;;;;;;-147.53;100.00;57128.34;10504018;28;20067;-77
2023/06/28 17:10:02;;;;;;;3.60;2.03;;;;;;;-147.53;100.00;57128.34;10489095;28;20492;-77
2023/06/28 17:15:04;;;;;;;4.53;2.17;;;;;;;-147.53;100.00;57128.34;10520697;28;20040;-76
2023/06/28 17:20:06;;;;;;;3.60;1.90;;;;;;;-147.53;100.00;57128.34;10492243;28;20047;-77
2023/06/28 17:25:08;;;;;;;7.63;2.35;;;;;;;-147.53;100.00;57128.34;10512118;28;20132;-76
2023/06/28 17:30:11;;;;;;;5.82;2.53;;;;;;;-147.53;100.00;57128.34;10529007;28;20132;-76
2023/06/28 17:35:12;;;;;;;4.85;2.63;;;;;;;-147.53;100.00;57128.34;10481230;28;20522;-76
2023/06/28 17:40:14;;;;;;;4.22;2.22;;;;;;;-147.53;100.00;57128.34;10482954;28;20557;-76
2023/06/28 17:45:15;;;;;;;5.15;2.72;;;;;;;-147.53;100.00;57128.34;10480664;28;20048;-76
2023/06/28 17:50:18;;;;;;;7.72;3.80;;;;;;;-147.53;100.00;57128.34;10469732;28;20048;-76
2023/06/28 17:55:20;;;;;;;6.55;3.45;;;;;;;-147.53;100.00;57128.34;10484519;28;20113;-76
2023/06/28 18:00:21;;;;;;;12.93;6.05;;;;;;;-147.53;100.00;57128.34;10481022;28;20116;-75
2023/06/28 18:05:23;;;;;;;8.80;4.82;;;;;;;-147.53;100.00;57128.34;10480375;28;20084;-76
2023/06/28 18:10:25;;;;;;;9.88;5.03;;;;;;;-147.53;100.00;57128.34;10481525;28;20072;-77
2023/06/28 18:15:26;;;;;;;12.13;5.18;;;;;;;-147.53;100.00;57128.34;10481715;28;20049;-76
2023/06/28 18:20:28;;;;;;;11.90;5.90;;;;;;;-147.53;100.00;57128.34;10484529;28;20064;-75
2023/06/28 18:25:30;;;;;;;12.32;6.30;;;;;;;-147.53;100.00;57128.34;10488155;28;20123;-76
2023/06/28 18:30:31;;;;;;;12.02;6.07;;;;;;;-147.53;100.00;57128.34;10483462;28;20054;-76
2023/06/28 18:35:33;;;;;;;15.77;6.65;;;;;;;-147.53;100.00;57128.34;10481247;28;20041;-75
2023/06/28 18:40:36;;;;;;;11.75;6.45;;;;;;;-147.53;100.00;57128.34;10481315;28;20048;-76
2023/06/28 18:45:42;;;;;;;14.10;6.38;;;;;;;-147.53;100.00;57128.34;10485024;28;20048;-76
2023/06/28 18:50:45;;;;;;;13.50;6.35;;;;;;;-147.53;100.00;57128.34;10486891;28;20044;-76
2023/06/28 18:55:47;;;;;;;12.25;5.82;;;;;;;-147.53;100.00;57128.34;10486781;28;20052;-75
2023/06/28 19:00:49;;;;;;;10.27;5.40;;;;;;;-147.53;100.00;57128.34;10469594;28;20054;-76
2023/06/28 19:05:51;;;;;;;11.50;5.65;;;;;;;-147.53;100.00;57128.34;10464023;28;20049;-75
2023/06/28 19:10:54;;;;;;;9.93;5.28;;;;;;;-147.53;100.00;57128.34;10482973;28;20127;-76
2023/06/28 19:15:55;;;;;;;13.32;5.65;;;;;;;-147.53;100.00;57128.34;10466016;28;20156;-76
2023/06/28 19:20:57;;;;;;;11.50;5.68;;;;;;;-147.53;100.00;57128.34;10485280;28;20052;-76
2023/06/28 19:25:59;;;;;;;10.80;5.38;;;;;;;-147.53;100.00;57128.34;10486504;28;20155;-76
2023/06/28 19:31:00;;;;;;;7.88;4.57;;;;;;;-147.53;100.00;57128.34;10489473;28;20044;-76
2023/06/28 19:36:02;;;;;;;11.02;5.30;;;;;;;-147.53;100.00;57128.34;10482949;28;20094;-76
2023/06/28 19:41:04;;;;;;;9.13;4.68;;;;;;;-147.53;100.00;57128.34;10490951;28;20114;-76
2023/06/28 19:46:06;;;;;;;11.40;5.15;;;;;;;-147.53;100.00;57128.34;10483874;28;20135;-76
2023/06/28 19:51:07;;;;;;;10.50;4.93;;;;;;;-147.53;100.00;57128.34;10472553;28;20210;-76
2023/06/28 19:56:10;;;;;;;9.63;4.47;;;;;;;-147.53;100.00;57128.34;10470731;28;20060;-76
2023/06/28 20:01:11;;;;;;;9.45;4.80;;;;;;;-147.53;100.00;57128.34;10511572;28;20039;-76
2023/06/28 20:06:13;;;;;;;12.90;4.95;;;;;;;-147.53;100.00;57128.34;10515427;28;20513;-76
2023/06/28 20:11:15;;;;;;;10.70;5.15;;;;;;;-147.53;100.00;57128.34;10512523;28;20767;-76
2023/06/28 20:16:16;;;;;;;11.20;4.97;;;;;;;-147.53;100.00;57128.34;10517186;28;21415;-76
2023/06/28 20:21:18;;;;;;;9.95;5.32;;;;;;;-147.53;100.00;57128.34;10498632;28;20054;-76
2023/06/28 20:26:19;;;;;;;10.75;5.60;;;;;;;-147.53;100.00;57128.34;10515384;28;20143;-76
2023/06/28 20:31:21;;;;;;;13.52;6.15;;;;;;;-147.53;100.00;57128.34;10508430;28;20135;-75
2023/06/28 20:36:23;;;;;;;10.82;5.85;;;;;;;-147.53;100.00;57128.34;10487597;28;20692;-76
2023/06/28 20:41:25;;;;;;;9.60;4.88;;;;;;;-147.53;100.00;57128.34;10462647;28;20063;-76
2023/06/28 20:46:26;;;;;;;10.95;5.30;;;;;;;-147.53;100.00;57128.34;10495817;28;20145;-76
2023/06/28 20:51:28;;;;;;;15.15;5.50;;;;;;;-147.53;100.00;57128.34;10493158;28;20498;-76
2023/06/28 20:56:31;;;;;;;10.98;5.93;;;;;;;-147.53;100.00;57128.34;10489960;28;20075;-76
2023/06/28 21:01:34;;;;;;;15.15;6.03;;;;;;;-147.53;100.00;57128.34;10491057;28;20470;-78
2023/06/28 21:06:36;;;;;;;15.82;7.03;;;;;;;-147.53;100.00;57128.34;10504830;28;20068;-80
2023/06/28 21:11:45;;;;;;;11.32;5.65;;;;;;;-147.53;100.00;57128.34;10490878;28;20055;-80
2023/06/28 21:16:57;;;;;;;12.93;5.75;;;;;;;-147.53;100.00;57128.34;10471231;28;20118;-80
2023/06/28 21:21:59;;;;;;;14.13;6.38;;;;;;;-147.53;100.00;57128.34;10505078;28;20434;-80
2023/06/28 21:27:01;;;;;;;15.40;7.03;;;;;;;-147.53;100.00;57128.34;10502014;28;20056;-80
2023/06/28 21:32:02;;;;;;;12.20;6.68;;;;;;;-147.53;100.00;57128.34;10502503;28;20098;-80
2023/06/28 21:37:04;;;;;;;10.38;6.07;;;;;;;-147.53;100.00;57128.34;10497058;28;20426;-79
2023/06/28 21:42:07;;;;;;;11.48;5.75;;;;;;;-147.53;100.00;57128.34;10495405;28;20094;-79
2023/06/28 21:47:08;;;;;;;14.00;7.15;;;;;;;-147.53;100.00;57128.34;10476508;28;20075;-79
2023/06/28 21:52:12;;;;;;;12.98;7.18;;;;;;;-147.53;100.00;57128.34;10497803;28;20729;-79
2023/06/28 21:57:14;;;;;;;16.50;7.63;;;;;;;-147.53;100.00;57128.34;10488212;28;20052;-78
2023/06/28 22:02:16;;;;;;;14.93;7.00;;;;;;;-147.53;100.00;57128.34;10493324;28;20131;-79
2023/06/28 22:07:18;;;;;;;15.50;8.48;;;;;;;-147.53;100.00;57128.34;10475458;28;20075;-78
2023/06/28 22:12:20;;;;;;;14.75;8.18;;;;;;;-147.53;100.00;57128.34;10492384;28;20071;-79
2023/06/28 22:17:22;;;;;;;14.50;7.28;;;;;;;-147.53;100.00;57128.34;10494748;28;20115;-78
2023/06/28 22:22:24;;;;;;;16.27;7.82;;;;;;;-147.53;100.00;57128.34;10499536;28;20608;-79
2023/06/28 22:27:25;;;;;;;13.55;7.30;;;;;;;-147.53;100.00;57128.34;10479722;28;20175;-79
2023/06/28 22:32:27;;;;;;;15.32;7.60;;;;;;;-147.53;100.00;57128.34;10478430;28;20040;-79
2023/06/28 22:37:29;;;;;;;13.68;7.85;;;;;;;-147.53;100.00;57128.34;10498466;28;20063;-79